createdAt,value
2018-07-11T00:00:02.907Z,4.23
2018-07-11T00:02:33.077Z,4.10
2018-07-11T00:05:03.283Z,7.78
2018-07-11T00:07:33.487Z,5.35
2018-07-11T00:10:03.782Z,4.95
2018-07-11T00:12:33.944Z,5.15
2018-07-11T00:15:03.750Z,5.10
2018-07-11T00:17:33.951Z,5.22
2018-07-11T00:20:04.082Z,5.92
2018-07-11T00:22:34.303Z,5.25
2018-07-11T00:25:04.439Z,6.35
2018-07-11T00:27:34.702Z,7.58
2018-07-11T00:30:04.814Z,7.35
2018-07-11T00:32:35.077Z,6.97
2018-07-11T00:35:05.281Z,6.20
2018-07-11T00:37:35.618Z,5.57
2018-07-11T00:40:05.808Z,4.58
2018-07-11T00:42:36.099Z,5.95
2018-07-11T00:45:06.349Z,6.40
2018-07-11T00:47:36.657Z,5.33
2018-07-11T00:50:06.807Z,6.87
2018-07-11T00:52:36.612Z,6.33
2018-07-11T00:55:06.812Z,6.72
2018-07-11T00:57:37.884Z,5.58
2018-07-11T01:00:08.009Z,6.90
2018-07-11T01:02:38.256Z,6.55
2018-07-11T01:05:08.365Z,7.10
2018-07-11T01:07:38.597Z,6.15
2018-07-11T01:10:08.935Z,6.10
2018-07-11T01:12:39.144Z,7.42
2018-07-11T01:15:09.451Z,6.72
2018-07-11T01:17:44.967Z,6.83
2018-07-11T01:20:15.520Z,8.43
2018-07-11T01:22:49.900Z,7.03
2018-07-11T01:25:22.312Z,7.40
2018-07-11T01:27:53.064Z,7.47
2018-07-11T01:30:23.114Z,6.37
2018-07-11T01:32:53.347Z,5.75
2018-07-11T01:35:23.421Z,7.05
2018-07-11T01:37:53.597Z,6.35
2018-07-11T01:40:23.674Z,6.10
2018-07-11T01:42:53.781Z,8.05
2018-07-11T01:45:23.914Z,8.03
2018-07-11T01:47:54.034Z,7.60
2018-07-11T01:50:24.559Z,9.00
2018-07-11T01:52:59.383Z,7.08
2018-07-11T01:55:30.028Z,7.05
2018-07-11T01:58:01.953Z,8.93
2018-07-11T02:00:31.755Z,10.68
2018-07-11T02:03:01.988Z,7.42
2018-07-11T02:05:32.104Z,7.03
2018-07-11T02:08:02.755Z,7.67
2018-07-11T02:10:32.919Z,8.15
2018-07-11T02:13:03.095Z,7.12
2018-07-11T02:15:33.236Z,6.85
2018-07-11T02:18:03.950Z,7.22
2018-07-11T02:20:34.132Z,8.50
2018-07-11T02:23:04.306Z,7.12
2018-07-11T02:25:34.486Z,7.83
2018-07-11T02:28:04.664Z,9.78
2018-07-11T02:30:34.797Z,8.33
2018-07-11T02:33:05.020Z,10.45
2018-07-11T02:35:35.192Z,9.60
2018-07-11T02:38:05.334Z,9.48
2018-07-11T02:40:35.369Z,8.13
2018-07-11T02:43:05.470Z,8.00
2018-07-11T02:45:35.579Z,8.10
2018-07-11T02:48:05.678Z,8.98
2018-07-11T02:50:35.778Z,9.75
2018-07-11T02:53:05.871Z,9.33
2018-07-11T02:55:36.023Z,9.03
2018-07-11T02:58:06.185Z,9.70
2018-07-11T03:00:36.298Z,9.80
2018-07-11T03:03:06.461Z,8.80
2018-07-11T03:05:36.551Z,9.05
2018-07-11T03:08:07.254Z,8.58
2018-07-11T03:10:37.284Z,9.65
2018-07-11T03:13:08.194Z,8.63
2018-07-11T03:15:38.203Z,9.50
2018-07-11T03:18:08.319Z,9.15
2018-07-11T03:20:38.487Z,9.33
2018-07-11T03:23:08.567Z,9.43
2018-07-11T03:25:38.600Z,9.78
2018-07-11T03:28:08.676Z,9.25
2018-07-11T03:30:38.687Z,9.33
2018-07-11T03:33:08.881Z,10.95
2018-07-11T03:35:38.988Z,10.25
2018-07-11T03:38:09.106Z,9.03
2018-07-11T03:40:39.175Z,10.20
2018-07-11T03:43:09.287Z,9.60
2018-07-11T03:45:39.396Z,11.57
2018-07-11T03:48:09.514Z,9.48
2018-07-11T03:50:39.528Z,9.20
2018-07-11T03:53:09.603Z,10.50
2018-07-11T03:55:39.585Z,10.40
2018-07-11T03:58:09.702Z,11.30
2018-07-11T04:00:39.723Z,11.50
2018-07-11T04:03:09.325Z,9.70
2018-07-11T04:05:39.363Z,9.75
2018-07-11T04:08:09.407Z,9.95
2018-07-11T04:10:39.415Z,11.97
2018-07-11T04:13:19.007Z,9.33
2018-07-11T04:15:49.045Z,11.10
2018-07-11T04:18:31.728Z,10.45
2018-07-11T04:21:02.773Z,11.30
2018-07-11T04:23:32.880Z,12.57
2018-07-11T04:26:03.661Z,9.85
2018-07-11T04:28:33.786Z,10.88
2018-07-11T04:31:03.424Z,11.80
2018-07-11T04:33:33.650Z,10.35
2018-07-11T04:36:03.804Z,13.00
2018-07-11T04:38:33.918Z,12.68
2018-07-11T04:41:03.992Z,11.28
2018-07-11T04:43:34.266Z,11.40
2018-07-11T04:46:04.469Z,13.68
2018-07-11T04:48:34.739Z,12.35
2018-07-11T04:51:04.850Z,13.93
2018-07-11T04:53:35.138Z,12.93
2018-07-11T04:56:06.550Z,11.40
2018-07-11T04:58:36.687Z,11.40
2018-07-11T05:01:06.317Z,11.75
2018-07-11T05:03:36.390Z,13.28
2018-07-11T05:06:06.743Z,10.53
2018-07-11T05:08:36.465Z,12.33
2018-07-11T05:11:06.509Z,12.07
2018-07-11T05:13:36.639Z,10.55
2018-07-11T05:16:07.742Z,13.03
2018-07-11T05:18:37.850Z,12.03
2018-07-11T05:21:07.987Z,11.22
2018-07-11T05:23:38.262Z,13.10
2018-07-11T05:26:08.716Z,9.93
2018-07-11T05:28:38.831Z,12.10
2018-07-11T05:31:09.020Z,11.25
2018-07-11T05:33:39.107Z,13.83
2018-07-11T05:36:09.225Z,13.70
2018-07-11T05:38:39.328Z,11.93
2018-07-11T05:41:09.467Z,11.87
2018-07-11T05:43:39.576Z,12.82
2018-07-11T05:46:09.701Z,11.33
2018-07-11T05:48:39.799Z,12.28
2018-07-11T05:51:09.938Z,12.23
2018-07-11T05:53:40.122Z,13.18
2018-07-11T05:56:10.452Z,12.28
2018-07-11T05:58:40.592Z,11.78
2018-07-11T06:01:11.026Z,11.75
2018-07-11T06:03:41.100Z,12.40
2018-07-11T06:06:11.309Z,12.13
2018-07-11T06:08:41.392Z,10.63
2018-07-11T06:11:23.614Z,11.65
2018-07-11T06:13:54.796Z,11.20
2018-07-11T06:16:25.023Z,12.15
2018-07-11T06:18:55.175Z,13.17
2018-07-11T06:21:26.522Z,13.22
2018-07-11T06:23:56.908Z,10.43
2018-07-11T06:26:27.029Z,11.03
2018-07-11T06:28:57.116Z,11.05
2018-07-11T06:31:27.270Z,9.95
2018-07-11T06:33:57.383Z,12.60
2018-07-11T06:36:27.527Z,12.35
2018-07-11T06:38:57.613Z,10.00
2018-07-11T06:41:27.746Z,11.33
2018-07-11T06:43:57.843Z,10.20
2018-07-11T06:46:27.987Z,11.38
2018-07-11T06:48:58.049Z,9.38
2018-07-11T06:51:28.203Z,9.08
2018-07-11T06:53:58.331Z,10.05
2018-07-11T06:56:28.508Z,8.95
2018-07-11T06:58:58.606Z,8.60
2018-07-11T07:01:28.685Z,9.68
2018-07-11T07:03:58.751Z,9.80
2018-07-11T07:06:28.871Z,10.65
2018-07-11T07:08:58.927Z,9.87
2018-07-11T07:11:28.983Z,7.85
2018-07-11T07:13:59.083Z,9.08
2018-07-11T07:16:29.183Z,9.77
2018-07-11T07:18:59.338Z,8.55
2018-07-11T07:21:29.424Z,8.00
2018-07-11T07:23:59.559Z,8.07
2018-07-11T07:26:29.707Z,8.00
2018-07-11T07:28:59.449Z,8.80
2018-07-11T07:31:29.542Z,7.92
2018-07-11T07:33:59.632Z,6.90
2018-07-11T07:36:30.143Z,6.65
2018-07-11T07:39:00.264Z,8.23
2018-07-11T07:41:30.347Z,6.50
2018-07-11T07:44:01.013Z,6.45
2018-07-11T07:46:31.228Z,6.35
2018-07-11T07:49:01.391Z,6.83
2018-07-11T07:51:31.591Z,6.03
2018-07-11T07:54:01.766Z,5.35
2018-07-11T07:56:32.021Z,5.12
2018-07-11T07:59:02.275Z,6.00
2018-07-11T08:01:32.442Z,5.55
2018-07-11T08:04:02.658Z,4.25
2018-07-11T08:06:32.756Z,6.15
2018-07-11T08:09:02.871Z,5.72
2018-07-11T08:11:32.986Z,5.62
2018-07-11T08:14:03.056Z,5.08
2018-07-11T08:16:33.183Z,6.78
2018-07-11T08:19:03.287Z,6.50
2018-07-11T08:21:33.423Z,4.58
2018-07-11T08:24:19.970Z,5.70
2018-07-11T08:27:06.626Z,5.58
2018-07-11T08:30:53.996Z,5.42
2018-07-11T08:33:51.739Z,5.23
2018-07-11T08:36:37.332Z,6.03
2018-07-11T08:42:35.115Z,5.60
2018-07-11T08:45:51.708Z,6.62
2018-07-11T08:49:39.597Z,4.70
2018-07-11T08:54:34.389Z,7.62
2018-07-11T08:59:23.941Z,6.17
2018-07-11T09:12:25.356Z,6.67
2018-07-11T09:15:42.327Z,9.23
2018-07-11T09:18:29.313Z,6.00
2018-07-11T09:21:32.656Z,7.12
2018-07-11T09:25:09.382Z,6.85
2018-07-11T09:27:39.587Z,8.08
2018-07-11T09:30:09.760Z,6.80
2018-07-11T09:32:39.997Z,6.22
2018-07-11T09:35:10.118Z,6.55
2018-07-11T09:37:40.412Z,5.35
2018-07-11T09:40:10.530Z,6.85
2018-07-11T09:42:40.763Z,6.72
2018-07-11T09:45:11.067Z,7.83
2018-07-11T09:47:40.772Z,7.92
2018-07-11T09:50:11.125Z,6.95
2018-07-11T09:52:41.316Z,5.90
2018-07-11T09:55:11.504Z,6.22
2018-07-11T09:57:42.104Z,6.15
2018-07-11T10:00:19.359Z,4.17
2018-07-11T10:02:49.589Z,6.07
2018-07-11T10:05:19.835Z,4.83
2018-07-11T10:07:50.104Z,7.20
2018-07-11T10:10:20.235Z,4.33
2018-07-11T10:12:50.413Z,5.12
2018-07-11T10:15:20.498Z,5.33
2018-07-11T10:17:50.726Z,4.55
2018-07-11T10:20:20.866Z,4.33
2018-07-11T10:22:51.075Z,5.83
2018-07-11T10:25:21.181Z,4.58
2018-07-11T10:28:06.467Z,4.75
2018-07-11T10:30:36.562Z,3.92
2018-07-11T10:33:06.676Z,3.75
2018-07-11T10:35:36.892Z,4.72
2018-07-11T10:38:06.998Z,3.83
2018-07-11T10:40:37.167Z,4.50
2018-07-11T10:43:07.489Z,4.33
2018-07-11T10:45:37.621Z,4.70
2018-07-11T10:48:07.726Z,4.80
2018-07-11T10:50:38.111Z,4.25
2018-07-11T10:53:08.159Z,4.97
2018-07-11T10:55:38.337Z,3.70
2018-07-11T10:58:08.460Z,3.97
2018-07-11T11:00:38.666Z,4.33
2018-07-11T11:03:09.009Z,4.17
2018-07-11T11:05:39.218Z,4.67
2018-07-11T11:08:09.335Z,4.08
2018-07-11T11:10:39.524Z,3.58
2018-07-11T11:13:09.644Z,2.67
2018-07-11T11:15:39.834Z,4.65
2018-07-11T11:18:09.950Z,3.72
2018-07-11T11:20:40.071Z,4.25
2018-07-11T11:23:10.265Z,3.12
2018-07-11T11:25:40.555Z,4.20
2018-07-11T11:28:10.669Z,4.35
2018-07-11T11:30:40.755Z,3.52
2018-07-11T11:33:11.053Z,7.85
2018-07-11T11:35:41.238Z,16.27
2018-07-11T11:38:11.559Z,3.45
2018-07-11T11:40:41.708Z,2.60
2018-07-11T11:43:13.122Z,3.02
2018-07-11T11:45:43.301Z,3.20
2018-07-11T11:48:13.766Z,3.65
2018-07-11T11:50:43.962Z,3.58
2018-07-11T11:53:14.119Z,3.03
2018-07-11T11:55:44.226Z,3.42
2018-07-11T11:58:14.335Z,3.98
2018-07-11T12:00:44.624Z,3.00
2018-07-11T12:03:14.788Z,2.75
2018-07-11T12:05:44.940Z,3.20
2018-07-11T12:08:15.751Z,4.67
2018-07-11T12:10:45.865Z,3.72
2018-07-11T12:13:16.985Z,3.58
2018-07-11T12:15:47.078Z,2.50
2018-07-11T12:18:17.212Z,3.75
2018-07-11T12:20:47.397Z,2.47
2018-07-11T12:23:17.634Z,4.67
2018-07-11T12:26:11.320Z,3.58
2018-07-11T12:28:41.514Z,2.35
2018-07-11T12:31:11.668Z,3.33
2018-07-11T12:33:43.069Z,3.67
2018-07-11T12:36:13.305Z,3.00
2018-07-11T12:38:44.243Z,2.25
2018-07-11T12:41:14.532Z,2.55
2018-07-11T12:43:44.293Z,3.30
2018-07-11T12:46:14.458Z,2.20
2018-07-11T12:48:49.798Z,2.65
2018-07-11T12:51:19.879Z,2.80
2018-07-11T12:53:50.191Z,1.93
2018-07-11T12:56:20.391Z,2.20
2018-07-11T12:58:50.787Z,1.70
2018-07-11T13:01:21.077Z,2.65
2018-07-11T13:03:53.756Z,2.85
2018-07-11T13:06:26.468Z,5.47
2018-07-11T13:08:56.762Z,3.02
2018-07-11T13:11:26.915Z,3.50
2018-07-11T13:13:57.042Z,2.77
2018-07-11T13:16:27.221Z,2.42
2018-07-11T13:18:57.428Z,4.47
2018-07-11T13:21:27.123Z,2.62
2018-07-11T13:23:57.257Z,3.85
2018-07-11T13:26:26.974Z,4.75
2018-07-11T13:28:57.117Z,3.75
2018-07-11T13:31:27.281Z,3.50
2018-07-11T13:33:58.349Z,3.33
2018-07-11T13:36:28.506Z,3.62
2018-07-11T13:38:58.231Z,3.20
2018-07-11T13:41:28.392Z,4.58
2018-07-11T13:43:58.536Z,2.70
2018-07-11T13:46:28.772Z,4.53
2018-07-11T13:48:59.446Z,3.00
2018-07-11T13:51:29.607Z,3.85
2018-07-11T13:53:59.890Z,2.98
2018-07-11T13:56:30.090Z,4.05
2018-07-11T13:58:59.909Z,2.83
2018-07-11T14:01:29.735Z,3.30
2018-07-11T14:04:00.059Z,3.90
2018-07-11T14:06:30.315Z,3.17
2018-07-11T14:09:01.201Z,2.70
2018-07-11T14:11:31.467Z,2.60
2018-07-11T14:14:01.694Z,3.02
2018-07-11T14:16:31.952Z,2.77
2018-07-11T14:19:02.138Z,2.77
2018-07-11T14:21:32.275Z,2.70
2018-07-11T14:24:02.493Z,3.70
2018-07-11T14:26:34.395Z,3.52
2018-07-11T14:29:05.315Z,2.70
2018-07-11T14:31:36.952Z,3.47
2018-07-11T14:34:09.104Z,2.87
2018-07-11T14:36:38.812Z,2.85
2018-07-11T14:39:09.685Z,3.15
2018-07-11T14:41:39.861Z,2.10
2018-07-11T14:44:10.139Z,2.42
2018-07-11T14:46:40.415Z,2.50
2018-07-11T14:49:10.962Z,3.10
2018-07-11T14:51:40.920Z,1.95
2018-07-11T14:54:10.596Z,2.30
2018-07-11T14:56:40.454Z,2.05
2018-07-11T14:59:11.161Z,3.37
2018-07-11T15:01:41.803Z,3.15
2018-07-11T15:04:11.935Z,3.02
2018-07-11T15:06:42.909Z,3.10
2018-07-11T15:09:13.374Z,2.45
2018-07-11T15:11:43.403Z,2.17
2018-07-11T15:14:13.633Z,2.25
2018-07-11T15:16:43.832Z,1.65
2018-07-11T15:19:14.317Z,2.12
2018-07-11T15:21:44.601Z,2.08
2018-07-11T15:24:15.138Z,2.50
2018-07-11T15:26:45.312Z,1.85
2018-07-11T15:29:15.523Z,2.08
2018-07-11T15:31:45.902Z,1.60
2018-07-11T15:34:16.212Z,1.95
2018-07-11T15:36:46.574Z,2.60
2018-07-11T15:39:16.654Z,1.70
2018-07-11T15:41:47.772Z,2.13
2018-07-11T15:44:18.012Z,2.15
2018-07-11T15:46:48.267Z,1.50
2018-07-11T15:49:18.558Z,2.20
2018-07-11T15:51:49.182Z,2.27
2018-07-11T15:54:19.472Z,2.33
2018-07-11T15:56:49.654Z,2.37
2018-07-11T15:59:21.635Z,1.65
2018-07-11T16:01:56.641Z,2.02
2018-07-11T16:04:38.502Z,1.90
2018-07-11T16:07:09.888Z,1.95
2018-07-11T16:09:54.013Z,1.95
2018-07-11T16:12:25.228Z,1.50
2018-07-11T16:14:56.229Z,1.77
2018-07-11T16:17:26.565Z,1.72
2018-07-11T16:19:56.841Z,2.98
2018-07-11T16:22:27.931Z,2.87
2018-07-11T16:24:58.199Z,2.60
2018-07-11T16:27:28.842Z,2.70
2018-07-11T16:29:59.007Z,2.20
2018-07-11T16:32:29.748Z,2.08
2018-07-11T16:35:00.381Z,2.00
2018-07-11T16:37:30.781Z,2.08
2018-07-11T16:40:00.892Z,1.80
2018-07-11T16:42:31.363Z,2.00
2018-07-11T16:45:01.846Z,2.43
2018-07-11T16:47:32.240Z,1.80
2018-07-11T16:50:02.446Z,1.70
2018-07-11T16:52:33.069Z,2.37
2018-07-11T16:55:03.615Z,2.33
2018-07-11T16:57:45.305Z,1.85
2018-07-11T17:00:15.557Z,2.60
2018-07-11T17:02:48.088Z,2.30
2018-07-11T17:05:21.121Z,2.27
2018-07-11T17:07:54.817Z,2.02
2018-07-11T17:10:25.007Z,2.05
2018-07-11T17:13:29.456Z,1.72
2018-07-11T17:15:59.773Z,3.52
2018-07-11T17:18:47.311Z,2.87
2018-07-11T17:21:50.461Z,1.32
2018-07-11T17:24:22.049Z,1.40
2018-07-11T17:26:55.961Z,1.57
2018-07-11T17:29:30.883Z,1.60
2018-07-11T17:32:10.130Z,3.02
2018-07-11T17:34:41.304Z,1.62
2018-07-11T17:37:12.611Z,1.72
2018-07-11T17:39:55.980Z,1.30
2018-07-11T17:42:28.536Z,3.37
2018-07-11T17:45:11.888Z,1.85
2018-07-11T17:48:59.037Z,1.42
2018-07-11T17:52:11.919Z,2.12
2018-07-11T17:55:08.728Z,2.22
2018-07-11T17:57:47.612Z,1.92
2018-07-11T18:00:45.220Z,1.87
2018-07-11T18:03:44.864Z,2.00
2018-07-11T18:07:25.223Z,1.65
2018-07-11T18:10:04.599Z,1.37
2018-07-11T18:12:47.872Z,1.92
2018-07-11T18:15:41.163Z,1.65
2018-07-11T18:18:57.477Z,1.50
2018-07-11T18:23:48.923Z,1.50
2018-07-11T18:26:33.725Z,2.42
2018-07-11T18:32:09.658Z,1.60
2018-07-11T18:34:54.218Z,1.35
2018-07-11T18:37:57.047Z,1.85
2018-07-11T18:41:10.549Z,1.40
2018-07-11T18:43:55.376Z,1.85
2018-07-11T18:48:42.926Z,7.15
2018-07-11T18:51:21.877Z,3.45
2018-07-11T18:54:16.198Z,3.65
2018-07-11T18:57:46.520Z,2.08
2018-07-11T19:00:43.323Z,2.27
2018-07-11T19:04:05.454Z,2.12
2018-07-11T19:07:54.620Z,2.15
2018-07-11T19:11:52.701Z,1.98
2018-07-11T19:14:40.099Z,2.02
2018-07-11T19:17:25.179Z,2.22
2018-07-11T19:20:23.474Z,1.65
2018-07-11T19:24:15.338Z,2.50
2018-07-11T19:26:57.147Z,8.55
2018-07-11T19:29:48.111Z,5.83
2018-07-11T19:34:36.564Z,3.60
2018-07-11T19:37:21.409Z,5.08
2018-07-11T19:40:18.177Z,3.62
2018-07-11T19:47:18.652Z,2.70
2018-07-11T19:50:02.707Z,1.70
2018-07-11T19:53:54.777Z,2.10
2018-07-11T19:56:56.677Z,1.62
2018-07-11T19:59:26.980Z,2.20
2018-07-11T20:01:57.235Z,3.02
2018-07-11T20:04:27.752Z,3.00
2018-07-11T20:06:57.891Z,1.70
2018-07-11T20:09:28.064Z,2.45
2018-07-11T20:11:58.419Z,1.70
2018-07-11T20:14:29.666Z,2.23
2018-07-11T20:16:59.742Z,2.95
2018-07-11T20:19:29.876Z,1.52
2018-07-11T20:22:00.101Z,1.90
2018-07-11T20:24:30.307Z,2.00
2018-07-11T20:27:00.399Z,1.57
2018-07-11T20:29:31.246Z,1.75
2018-07-11T20:32:01.403Z,2.00
2018-07-11T20:34:31.627Z,3.20
2018-07-11T20:37:01.715Z,4.08
2018-07-11T20:39:31.858Z,2.30
2018-07-11T20:42:02.007Z,2.93
2018-07-11T20:44:32.564Z,2.00
2018-07-11T20:47:04.617Z,1.82
2018-07-11T20:49:35.742Z,2.65
2018-07-11T20:52:06.911Z,1.95
2018-07-11T20:54:36.979Z,1.70
2018-07-11T20:57:07.080Z,1.80
2018-07-11T20:59:53.807Z,1.82
2018-07-11T21:02:40.583Z,3.25
2018-07-11T21:05:50.846Z,2.47
2018-07-11T21:10:44.401Z,2.40
2018-07-11T21:13:43.131Z,1.90
2018-07-11T21:16:36.535Z,2.75
2018-07-11T21:19:08.667Z,1.92
2018-07-11T21:21:39.811Z,1.90
2018-07-11T21:24:10.669Z,1.70
2018-07-11T21:26:41.506Z,1.80
2018-07-11T21:29:11.555Z,1.70
2018-07-11T21:31:41.659Z,2.07
2018-07-11T21:34:11.718Z,1.60
2018-07-11T21:36:41.759Z,2.37
2018-07-11T21:39:11.884Z,1.85
2018-07-11T21:41:41.897Z,2.27
2018-07-11T21:44:11.954Z,2.95
2018-07-11T21:46:41.998Z,2.15
2018-07-11T21:49:12.119Z,2.43
2018-07-11T21:51:42.090Z,2.60
2018-07-11T21:54:12.145Z,2.20
2018-07-11T21:56:42.181Z,1.70
2018-07-11T21:59:12.290Z,2.13
2018-07-11T22:01:44.167Z,2.62
2018-07-11T22:04:14.322Z,2.67
2018-07-11T22:06:44.386Z,1.90
2018-07-11T22:09:14.451Z,1.60
2018-07-11T22:11:44.498Z,1.90
2018-07-11T22:14:14.575Z,2.47
2018-07-11T22:16:44.609Z,1.60
2018-07-11T22:19:14.644Z,1.72
2018-07-11T22:21:42.656Z,2.47
2018-07-11T22:24:10.726Z,2.15
2018-07-11T22:26:38.747Z,2.50
2018-07-11T22:29:07.026Z,2.80
2018-07-11T22:31:35.006Z,2.42
2018-07-11T22:34:03.278Z,2.42
2018-07-11T22:36:31.277Z,2.98
2018-07-11T22:38:59.306Z,1.70
2018-07-11T22:41:27.304Z,1.70
2018-07-11T22:43:55.572Z,2.00
2018-07-11T22:46:23.570Z,2.67
2018-07-11T22:48:51.587Z,2.42
2018-07-11T22:51:19.587Z,3.12
2018-07-11T22:53:47.719Z,2.70
2018-07-11T22:56:15.700Z,1.80
2018-07-11T22:58:43.693Z,2.10
2018-07-11T23:01:11.736Z,3.02
2018-07-11T23:03:39.740Z,3.20
2018-07-11T23:06:07.766Z,7.03
2018-07-11T23:08:35.764Z,3.95
2018-07-11T23:11:03.807Z,1.97
2018-07-11T23:13:32.040Z,1.95
2018-07-11T23:16:00.193Z,2.75
2018-07-11T23:18:28.376Z,2.08
2018-07-11T23:20:56.393Z,1.80
2018-07-11T23:23:24.405Z,2.42
2018-07-11T23:25:52.418Z,1.67
2018-07-11T23:28:20.424Z,2.10
2018-07-11T23:30:48.441Z,2.20
2018-07-11T23:33:17.305Z,2.35
2018-07-11T23:35:45.326Z,2.10
2018-07-11T23:38:13.392Z,2.10
2018-07-11T23:40:41.380Z,2.52
2018-07-11T23:43:09.388Z,2.12
2018-07-11T23:45:37.414Z,2.20
2018-07-11T23:48:05.419Z,2.40
2018-07-11T23:50:33.464Z,2.02
2018-07-11T23:53:01.453Z,1.90
2018-07-11T23:55:29.459Z,2.15
2018-07-11T23:57:57.478Z,2.05
